メインページ
METAR-TAF:

METAR-TAF

空港 :

カウナカカイ, ハワイ州, アメリカ合衆国

緯度: 21-09N, 経度: 157-06W, 海抜: 138m

現時点の気象観測

当レポートは56分前の08:54(UTC)に作成
北/北東の風 9kt、最大19ktの突風を伴う
気温 23°C
湿度 94%
気圧 1016 hPa
視程: 16.1km
晴天

METAR: PHMK 160854Z AUTO 02009G19KT 10SM CLR 23/22 A3000 RMK AO2 SLP162 T02330217 50005 TSNO

時間: 23:50 (09:50 UTC)

予報

当レポートは4時間18分前の05:32(UTC)に作成
予報は16日の 06時(UTC)から 17日の 06時(UTC)まで有効
北/北東の風 11kt
視程: 10km
高度2500ftの雲は散在している
高度4500ftの千切れ雲あり
高度15000ftの千切れ雲あり
近辺でにわか雨
16日の 0700時(UTC)から
北東の風 8kt
視程: 9.7km
高度2000ftの雲は散在している
高度3500ftの千切れ雲あり
弱いにわか雨
16日の 2000時(UTC)から
北東の風 16kt、最大22ktの突風を伴う
視程: 10km
高度2500ftの雲は散在している
高度5000ftの千切れ雲あり
近辺でにわか雨
17日の 0500時(UTC)から
北東の風 11kt、最大18ktの突風を伴う
視程: 10km
高度3000ftの雲は散在している
高度5000ftの雲は散在している
高度15000ftの千切れ雲あり

TAF: PHMK 160532Z 1606/1706 03011KT P6SM VCSH SCT025 BKN045 BKN150 FM160700 04008KT 6SM -SHRA SCT020 BKN035 FM162000 04016G22KT P6SM VCSH SCT025 BKN050 FM170500 04011G18KT P6SM SCT030 SCT050 BKN150

4,000以上の空港の気象観測と天気予報(METAR報とTAF報)

利用可能な観測所は地図上に黄色い丸と赤い丸で示す。

丸の上にカーソルを重ねると観測所名を参照できる。

次にクリックすると気象観測と天気予報を参照できる。

マップの切り替え:黒色「×」印の緑ボタンをクリックして拡大、「-」印の緑ボタンをクリックして縮小、緑色の三角印をクリックして隣りの地図に切り替え


METAR-TAF: